sensor_id;sensor_type;location;lat;lon;timestamp;pressure;altitude;pressure_sealevel;temperature;humidity
6024;BME280;3040;42.654;23.296;2022-12-07T00:01:06;94205.16;;;6.71;89.59
6024;BME280;3040;42.654;23.296;2022-12-07T00:03:34;94211.97;;;6.98;88.54
6024;BME280;3040;42.654;23.296;2022-12-07T00:06:02;94203.88;;;6.94;88.42
6024;BME280;3040;42.654;23.296;2022-12-07T00:08:30;94205.31;;;7.30;87.36
6024;BME280;3040;42.654;23.296;2022-12-07T00:11:00;94205.59;;;7.37;86.41
6024;BME280;3040;42.654;23.296;2022-12-07T00:13:29;94196.19;;;7.57;85.57
6024;BME280;3040;42.654;23.296;2022-12-07T00:16:00;94205.13;;;7.73;84.66
6024;BME280;3040;42.654;23.296;2022-12-07T00:18:28;94197.34;;;7.76;84.67
6024;BME280;3040;42.654;23.296;2022-12-07T00:20:59;94177.84;;;7.81;83.47
6024;BME280;3040;42.654;23.296;2022-12-07T00:23:26;94174.44;;;7.81;83.33
6024;BME280;3040;42.654;23.296;2022-12-07T00:25:53;94190.22;;;7.98;83.08
6024;BME280;3040;42.654;23.296;2022-12-07T00:28:20;94185.34;;;7.50;84.07
6024;BME280;3040;42.654;23.296;2022-12-07T00:30:47;94197.59;;;7.84;83.83
6024;BME280;3040;42.654;23.296;2022-12-07T00:33:13;94197.44;;;7.59;84.15
6024;BME280;3040;42.654;23.296;2022-12-07T00:35:42;94205.09;;;7.82;83.83
6024;BME280;3040;42.654;23.296;2022-12-07T00:38:08;94192.59;;;7.91;83.62
6024;BME280;3040;42.654;23.296;2022-12-07T00:40:35;94104.75;;;7.47;82.90
6024;BME280;3040;42.654;23.296;2022-12-07T00:43:02;94183.81;;;7.99;82.69
6024;BME280;3040;42.654;23.296;2022-12-07T00:45:29;94205.28;;;8.06;82.56
6024;BME280;3040;42.654;23.296;2022-12-07T00:47:56;94201.47;;;8.15;82.61
6024;BME280;3040;42.654;23.296;2022-12-07T00:50:23;94197.41;;;8.18;82.69
6024;BME280;3040;42.654;23.296;2022-12-07T00:52:51;94196.75;;;8.21;82.60
6024;BME280;3040;42.654;23.296;2022-12-07T00:55:18;94199.56;;;8.25;82.56
6024;BME280;3040;42.654;23.296;2022-12-07T00:57:45;94194.69;;;8.06;82.28
6024;BME280;3040;42.654;23.296;2022-12-07T01:00:12;94086.97;;;6.17;86.92
6024;BME280;3040;42.654;23.296;2022-12-07T01:02:39;94185.63;;;6.21;91.02
6024;BME280;3040;42.654;23.296;2022-12-07T01:05:07;94190.25;;;6.58;92.02
6024;BME280;3040;42.654;23.296;2022-12-07T01:07:34;94192.69;;;6.98;89.75
6024;BME280;3040;42.654;23.296;2022-12-07T01:10:02;94156.41;;;7.07;88.25
6024;BME280;3040;42.654;23.296;2022-12-07T01:12:29;94173.31;;;7.23;88.22
6024;BME280;3040;42.654;23.296;2022-12-07T01:14:56;94187.16;;;7.58;86.63
6024;BME280;3040;42.654;23.296;2022-12-07T01:17:23;94187.84;;;7.46;86.69
6024;BME280;3040;42.654;23.296;2022-12-07T01:19:50;94181.97;;;7.70;86.06
6024;BME280;3040;42.654;23.296;2022-12-07T01:22:16;94173.69;;;6.95;87.74
6024;BME280;3040;42.654;23.296;2022-12-07T01:24:43;94175.34;;;6.62;90.49
6024;BME280;3040;42.654;23.296;2022-12-07T01:27:13;94183.34;;;6.91;89.84
6024;BME280;3040;42.654;23.296;2022-12-07T01:29:40;94171.41;;;7.32;87.97
6024;BME280;3040;42.654;23.296;2022-12-07T01:32:07;94169.50;;;7.41;86.45
6024;BME280;3040;42.654;23.296;2022-12-07T01:34:34;94165.72;;;7.51;86.96
6024;BME280;3040;42.654;23.296;2022-12-07T01:37:01;94170.44;;;7.66;85.53
6024;BME280;3040;42.654;23.296;2022-12-07T01:39:28;94168.16;;;7.26;85.87
6024;BME280;3040;42.654;23.296;2022-12-07T01:41:55;94161.66;;;6.60;90.10
6024;BME280;3040;42.654;23.296;2022-12-07T01:44:25;94172.81;;;6.74;89.40
6024;BME280;3040;42.654;23.296;2022-12-07T01:46:53;94170.31;;;6.69;91.78
6024;BME280;3040;42.654;23.296;2022-12-07T01:49:31;94170.56;;;7.11;89.03
6024;BME280;3040;42.654;23.296;2022-12-07T01:52:10;94174.50;;;7.34;87.84
6024;BME280;3040;42.654;23.296;2022-12-07T01:54:39;94162.50;;;7.36;87.31
6024;BME280;3040;42.654;23.296;2022-12-07T01:57:07;94167.78;;;7.45;86.54
6024;BME280;3040;42.654;23.296;2022-12-07T01:59:36;94152.97;;;7.53;85.90
6024;BME280;3040;42.654;23.296;2022-12-07T02:02:07;94149.16;;;7.62;85.70
6024;BME280;3040;42.654;23.296;2022-12-07T02:04:36;94146.63;;;7.66;85.53
6024;BME280;3040;42.654;23.296;2022-12-07T02:07:04;94145.22;;;7.68;85.19
6024;BME280;3040;42.654;23.296;2022-12-07T02:09:31;94151.88;;;7.74;85.66
6024;BME280;3040;42.654;23.296;2022-12-07T02:11:58;94150.44;;;7.56;85.53
6024;BME280;3040;42.654;23.296;2022-12-07T02:14:25;94153.47;;;7.38;85.71
6024;BME280;3040;42.654;23.296;2022-12-07T02:17:03;94158.28;;;7.44;86.58
6024;BME280;3040;42.654;23.296;2022-12-07T02:20:00;94162.84;;;7.64;85.44
6024;BME280;3040;42.654;23.296;2022-12-07T02:22:54;94160.03;;;7.69;84.90
6024;BME280;3040;42.654;23.296;2022-12-07T02:25:38;94158.16;;;7.70;84.61
6024;BME280;3040;42.654;23.296;2022-12-07T02:28:10;94126.72;;;7.39;84.72
6024;BME280;3040;42.654;23.296;2022-12-07T02:30:45;94147.69;;;7.44;85.23
6024;BME280;3040;42.654;23.296;2022-12-07T02:33:17;94110.47;;;7.20;85.82
6024;BME280;3040;42.654;23.296;2022-12-07T02:35:50;94135.13;;;7.41;85.49
6024;BME280;3040;42.654;23.296;2022-12-07T02:38:20;94139.56;;;7.49;85.32
6024;BME280;3040;42.654;23.296;2022-12-07T02:40:53;94150.72;;;7.25;86.34
6024;BME280;3040;42.654;23.296;2022-12-07T02:43:24;94047.88;;;6.65;86.33
6024;BME280;3040;42.654;23.296;2022-12-07T02:45:55;94144.47;;;7.39;86.57
6024;BME280;3040;42.654;23.296;2022-12-07T02:48:24;94142.72;;;6.41;89.51
6024;BME280;3040;42.654;23.296;2022-12-07T02:50:53;94129.34;;;6.29;90.15
6024;BME280;3040;42.654;23.296;2022-12-07T02:53:35;94140.22;;;6.36;91.19
6024;BME280;3040;42.654;23.296;2022-12-07T02:56:07;94136.41;;;6.88;89.78
6024;BME280;3040;42.654;23.296;2022-12-07T02:58:45;94126.97;;;7.17;87.36
6024;BME280;3040;42.654;23.296;2022-12-07T03:01:24;94127.41;;;7.27;85.89
6024;BME280;3040;42.654;23.296;2022-12-07T03:03:58;94109.31;;;7.29;85.21
6024;BME280;3040;42.654;23.296;2022-12-07T03:06:31;94128.78;;;7.54;84.16
6024;BME280;3040;42.654;23.296;2022-12-07T03:09:09;94115.06;;;7.61;83.44
6024;BME280;3040;42.654;23.296;2022-12-07T03:11:44;94126.69;;;7.68;83.51
6024;BME280;3040;42.654;23.296;2022-12-07T03:14:17;94109.41;;;7.71;82.37
6024;BME280;3040;42.654;23.296;2022-12-07T03:16:50;94124.19;;;7.72;82.82
6024;BME280;3040;42.654;23.296;2022-12-07T03:19:20;94091.94;;;6.90;83.56
6024;BME280;3040;42.654;23.296;2022-12-07T03:21:54;94115.25;;;7.26;84.16
6024;BME280;3040;42.654;23.296;2022-12-07T03:24:25;94095.16;;;6.96;84.29
6024;BME280;3040;42.654;23.296;2022-12-07T03:27:09;94111.44;;;6.69;84.86
6024;BME280;3040;42.654;23.296;2022-12-07T03:29:41;94069.53;;;5.38;92.43
6024;BME280;3040;42.654;23.296;2022-12-07T03:32:15;94128.59;;;5.94;92.62
6024;BME280;3040;42.654;23.296;2022-12-07T03:34:48;94135.97;;;5.57;94.11
6024;BME280;3040;42.654;23.296;2022-12-07T03:37:22;94126.19;;;5.58;95.77
6024;BME280;3040;42.654;23.296;2022-12-07T03:39:58;94116.78;;;6.17;92.30
6024;BME280;3040;42.654;23.296;2022-12-07T03:42:28;94115.88;;;6.13;90.87
6024;BME280;3040;42.654;23.296;2022-12-07T03:44:56;94115.06;;;5.78;92.41
6024;BME280;3040;42.654;23.296;2022-12-07T03:47:28;94116.94;;;6.03;91.40
6024;BME280;3040;42.654;23.296;2022-12-07T03:49:59;94125.47;;;6.43;89.67
6024;BME280;3040;42.654;23.296;2022-12-07T03:52:33;94124.06;;;6.29;88.87
6024;BME280;3040;42.654;23.296;2022-12-07T03:55:08;94095.31;;;5.58;91.59
6024;BME280;3040;42.654;23.296;2022-12-07T03:57:37;94110.41;;;6.09;91.38
6024;BME280;3040;42.654;23.296;2022-12-07T04:00:07;94111.44;;;5.57;92.90
6024;BME280;3040;42.654;23.296;2022-12-07T04:02:36;94105.88;;;5.67;92.87
6024;BME280;3040;42.654;23.296;2022-12-07T04:05:03;94108.81;;;5.57;93.24
6024;BME280;3040;42.654;23.296;2022-12-07T04:07:30;94113.75;;;5.50;94.11
6024;BME280;3040;42.654;23.296;2022-12-07T04:09:57;94109.66;;;6.00;92.59
6024;BME280;3040;42.654;23.296;2022-12-07T04:12:24;94113.22;;;6.39;90.32
6024;BME280;3040;42.654;23.296;2022-12-07T04:14:51;94088.94;;;6.54;88.29
6024;BME280;3040;42.654;23.296;2022-12-07T04:17:18;94095.31;;;5.58;90.92
6024;BME280;3040;42.654;23.296;2022-12-07T04:19:46;94101.06;;;5.69;94.16
6024;BME280;3040;42.654;23.296;2022-12-07T04:22:13;94053.69;;;5.21;93.94
6024;BME280;3040;42.654;23.296;2022-12-07T04:24:40;94111.56;;;5.35;94.01
6024;BME280;3040;42.654;23.296;2022-12-07T04:27:07;94115.44;;;4.89;97.10
6024;BME280;3040;42.654;23.296;2022-12-07T04:29:34;94117.06;;;5.07;97.66
6024;BME280;3040;42.654;23.296;2022-12-07T04:32:01;94108.34;;;4.98;97.59
6024;BME280;3040;42.654;23.296;2022-12-07T04:34:27;94094.34;;;4.80;98.60
6024;BME280;3040;42.654;23.296;2022-12-07T04:36:56;94119.28;;;4.83;99.76
6024;BME280;3040;42.654;23.296;2022-12-07T04:39:26;94111.09;;;5.32;97.83
6024;BME280;3040;42.654;23.296;2022-12-07T04:41:53;94118.63;;;5.08;99.06
6024;BME280;3040;42.654;23.296;2022-12-07T04:44:21;94117.63;;;4.96;99.06
6024;BME280;3040;42.654;23.296;2022-12-07T04:46:48;94125.09;;;5.02;99.73
6024;BME280;3040;42.654;23.296;2022-12-07T04:49:15;94126.25;;;4.79;99.87
6024;BME280;3040;42.654;23.296;2022-12-07T04:51:42;94121.41;;;4.72;99.98
6024;BME280;3040;42.654;23.296;2022-12-07T04:54:11;94123.53;;;4.62;100.00
6024;BME280;3040;42.654;23.296;2022-12-07T04:56:38;94122.22;;;5.12;100.00
6024;BME280;3040;42.654;23.296;2022-12-07T04:59:05;94122.47;;;5.59;97.14
6024;BME280;3040;42.654;23.296;2022-12-07T05:01:33;94100.13;;;5.48;95.61
6024;BME280;3040;42.654;23.296;2022-12-07T05:04:00;94109.56;;;4.92;97.56
6024;BME280;3040;42.654;23.296;2022-12-07T05:06:27;94083.91;;;5.06;98.25
6024;BME280;3040;42.654;23.296;2022-12-07T05:08:54;94114.16;;;5.26;97.61
6024;BME280;3040;42.654;23.296;2022-12-07T05:11:23;94108.22;;;5.77;95.27
6024;BME280;3040;42.654;23.296;2022-12-07T05:14:08;94131.81;;;5.82;93.44
6024;BME280;3040;42.654;23.296;2022-12-07T05:16:35;94125.97;;;5.28;97.36
6024;BME280;3040;42.654;23.296;2022-12-07T05:19:02;94132.50;;;5.40;98.68
6024;BME280;3040;42.654;23.296;2022-12-07T05:21:30;94125.00;;;5.24;98.18
6024;BME280;3040;42.654;23.296;2022-12-07T05:23:57;94122.13;;;5.35;99.21
6024;BME280;3040;42.654;23.296;2022-12-07T05:26:25;94126.53;;;5.82;96.63
6024;BME280;3040;42.654;23.296;2022-12-07T05:28:53;94128.28;;;6.04;94.47
6024;BME280;3040;42.654;23.296;2022-12-07T05:31:20;94124.84;;;5.78;94.23
6024;BME280;3040;42.654;23.296;2022-12-07T05:33:47;94106.47;;;5.55;95.86
6024;BME280;3040;42.654;23.296;2022-12-07T05:36:14;94100.66;;;6.01;93.54
6024;BME280;3040;42.654;23.296;2022-12-07T05:38:41;94117.38;;;6.48;91.60
6024;BME280;3040;42.654;23.296;2022-12-07T05:41:12;94108.28;;;6.75;89.87
6024;BME280;3040;42.654;23.296;2022-12-07T05:44:01;94109.97;;;6.88;89.59
6024;BME280;3040;42.654;23.296;2022-12-07T05:46:28;93979.47;;;6.26;87.19
6024;BME280;3040;42.654;23.296;2022-12-07T05:48:54;94106.72;;;7.21;86.81
6024;BME280;3040;42.654;23.296;2022-12-07T05:51:22;94096.88;;;7.30;85.85
6024;BME280;3040;42.654;23.296;2022-12-07T05:53:49;94110.38;;;7.37;84.85
6024;BME280;3040;42.654;23.296;2022-12-07T05:56:16;94102.91;;;7.39;84.50
6024;BME280;3040;42.654;23.296;2022-12-07T05:58:42;94113.75;;;7.46;84.64
6024;BME280;3040;42.654;23.296;2022-12-07T06:01:28;94110.47;;;7.49;84.22
6024;BME280;3040;42.654;23.296;2022-12-07T06:03:55;94102.22;;;7.51;83.95
6024;BME280;3040;42.654;23.296;2022-12-07T06:06:22;94082.66;;;7.43;83.68
6024;BME280;3040;42.654;23.296;2022-12-07T06:08:49;94109.78;;;7.61;83.05
6024;BME280;3040;42.654;23.296;2022-12-07T06:11:15;94115.84;;;7.61;83.31
6024;BME280;3040;42.654;23.296;2022-12-07T06:14:00;94111.00;;;7.63;83.56
6024;BME280;3040;42.654;23.296;2022-12-07T06:16:28;94116.63;;;7.62;83.89
6024;BME280;3040;42.654;23.296;2022-12-07T06:18:55;94130.13;;;7.69;83.88
6024;BME280;3040;42.654;23.296;2022-12-07T06:21:22;94125.16;;;7.67;83.48
6024;BME280;3040;42.654;23.296;2022-12-07T06:23:51;94124.63;;;7.74;83.31
6024;BME280;3040;42.654;23.296;2022-12-07T06:26:17;94125.34;;;7.33;84.22
6024;BME280;3040;42.654;23.296;2022-12-07T06:28:44;94128.69;;;7.51;84.96
6024;BME280;3040;42.654;23.296;2022-12-07T06:31:11;94123.34;;;7.59;84.43
6024;BME280;3040;42.654;23.296;2022-12-07T06:33:39;94128.88;;;7.66;84.57
6024;BME280;3040;42.654;23.296;2022-12-07T06:36:07;94126.19;;;7.75;84.26
6024;BME280;3040;42.654;23.296;2022-12-07T06:38:34;94117.66;;;7.69;84.64
6024;BME280;3040;42.654;23.296;2022-12-07T06:41:01;94038.88;;;7.25;83.82
6024;BME280;3040;42.654;23.296;2022-12-07T06:43:28;94130.59;;;7.92;83.88
6024;BME280;3040;42.654;23.296;2022-12-07T06:45:54;94130.09;;;7.78;84.48
6024;BME280;3040;42.654;23.296;2022-12-07T06:48:21;94128.72;;;7.71;84.48
6024;BME280;3040;42.654;23.296;2022-12-07T06:50:50;94127.63;;;7.93;84.43
6024;BME280;3040;42.654;23.296;2022-12-07T06:53:16;94132.69;;;8.07;84.15
6024;BME280;3040;42.654;23.296;2022-12-07T06:55:43;94128.09;;;8.16;83.60
6024;BME280;3040;42.654;23.296;2022-12-07T06:58:10;94050.66;;;7.57;83.00
6024;BME280;3040;42.654;23.296;2022-12-07T07:00:37;94148.00;;;7.72;83.78
6024;BME280;3040;42.654;23.296;2022-12-07T07:03:04;94156.34;;;7.24;85.90
6024;BME280;3040;42.654;23.296;2022-12-07T07:05:30;94141.72;;;7.26;87.31
6024;BME280;3040;42.654;23.296;2022-12-07T07:07:59;94132.59;;;7.45;86.43
6024;BME280;3040;42.654;23.296;2022-12-07T07:10:26;94136.50;;;7.47;87.27
6024;BME280;3040;42.654;23.296;2022-12-07T07:12:53;94144.84;;;7.78;85.61
6024;BME280;3040;42.654;23.296;2022-12-07T07:15:19;94136.66;;;7.92;84.94
6024;BME280;3040;42.654;23.296;2022-12-07T07:17:47;94127.22;;;7.62;85.35
6024;BME280;3040;42.654;23.296;2022-12-07T07:20:14;94136.97;;;7.91;84.96
6024;BME280;3040;42.654;23.296;2022-12-07T07:22:41;94140.03;;;7.81;86.15
6024;BME280;3040;42.654;23.296;2022-12-07T07:25:09;94137.91;;;7.95;85.27
6024;BME280;3040;42.654;23.296;2022-12-07T07:27:36;94137.88;;;7.07;88.26
6024;BME280;3040;42.654;23.296;2022-12-07T07:30:04;94126.81;;;6.67;90.32
6024;BME280;3040;42.654;23.296;2022-12-07T07:32:31;94145.78;;;6.60;93.05
6024;BME280;3040;42.654;23.296;2022-12-07T07:34:58;94144.53;;;6.66;92.49
6024;BME280;3040;42.654;23.296;2022-12-07T07:37:26;94140.50;;;5.83;95.58
6024;BME280;3040;42.654;23.296;2022-12-07T07:39:53;94146.06;;;5.64;97.89
6024;BME280;3040;42.654;23.296;2022-12-07T07:42:21;94143.31;;;5.86;98.12
6024;BME280;3040;42.654;23.296;2022-12-07T07:44:48;94146.88;;;5.82;97.84
6024;BME280;3040;42.654;23.296;2022-12-07T07:47:15;94141.34;;;6.00;98.96
6024;BME280;3040;42.654;23.296;2022-12-07T07:49:42;94143.06;;;6.13;96.37
6024;BME280;3040;42.654;23.296;2022-12-07T07:52:09;94141.16;;;6.23;96.60
6024;BME280;3040;42.654;23.296;2022-12-07T07:54:36;94140.22;;;6.36;96.53
6024;BME280;3040;42.654;23.296;2022-12-07T07:57:03;94144.91;;;6.22;95.55
6024;BME280;3040;42.654;23.296;2022-12-07T07:59:31;94140.84;;;6.16;95.21
6024;BME280;3040;42.654;23.296;2022-12-07T08:01:58;94141.81;;;6.20;95.71
6024;BME280;3040;42.654;23.296;2022-12-07T08:04:25;94133.56;;;6.30;96.18
6024;BME280;3040;42.654;23.296;2022-12-07T08:06:52;94134.63;;;6.29;96.48
6024;BME280;3040;42.654;23.296;2022-12-07T08:09:19;94053.44;;;5.91;95.11
6024;BME280;3040;42.654;23.296;2022-12-07T08:11:46;94134.44;;;6.60;93.52
6024;BME280;3040;42.654;23.296;2022-12-07T08:14:13;94030.22;;;6.40;92.01
6024;BME280;3040;42.654;23.296;2022-12-07T08:16:41;94138.75;;;7.28;89.26
6024;BME280;3040;42.654;23.296;2022-12-07T08:19:08;94137.56;;;7.75;87.34
6024;BME280;3040;42.654;23.296;2022-12-07T08:21:35;94137.38;;;7.51;87.24
6024;BME280;3040;42.654;23.296;2022-12-07T08:24:02;94144.03;;;7.87;86.53
6024;BME280;3040;42.654;23.296;2022-12-07T08:26:29;94143.97;;;8.16;84.52
6024;BME280;3040;42.654;23.296;2022-12-07T08:28:56;94054.41;;;7.76;83.48
6024;BME280;3040;42.654;23.296;2022-12-07T08:31:24;94142.63;;;8.51;82.62
6024;BME280;3040;42.654;23.296;2022-12-07T08:33:52;94131.44;;;8.46;82.69
6024;BME280;3040;42.654;23.296;2022-12-07T08:36:20;94117.66;;;8.52;81.99
6024;BME280;3040;42.654;23.296;2022-12-07T08:38:48;94154.31;;;8.83;81.31
6024;BME280;3040;42.654;23.296;2022-12-07T08:41:16;94144.84;;;8.94;81.14
6024;BME280;3040;42.654;23.296;2022-12-07T08:43:43;94147.41;;;9.03;80.42
6024;BME280;3040;42.654;23.296;2022-12-07T08:46:13;94143.22;;;9.14;80.00
6024;BME280;3040;42.654;23.296;2022-12-07T08:48:44;94143.47;;;9.21;79.19
6024;BME280;3040;42.654;23.296;2022-12-07T08:51:14;94046.38;;;8.72;79.32
6024;BME280;3040;42.654;23.296;2022-12-07T08:53:41;94131.00;;;9.34;78.74
6024;BME280;3040;42.654;23.296;2022-12-07T08:56:09;94135.28;;;9.38;78.63
6024;BME280;3040;42.654;23.296;2022-12-07T08:58:37;94130.41;;;9.40;78.05
6024;BME280;3040;42.654;23.296;2022-12-07T09:01:04;94128.66;;;9.20;78.91
6024;BME280;3040;42.654;23.296;2022-12-07T09:03:31;94086.41;;;9.15;78.62
6024;BME280;3040;42.654;23.296;2022-12-07T09:05:59;94115.25;;;9.41;78.16
6024;BME280;3040;42.654;23.296;2022-12-07T09:08:31;94104.88;;;9.24;77.69
6024;BME280;3040;42.654;23.296;2022-12-07T09:10:59;94117.59;;;9.43;78.17
6024;BME280;3040;42.654;23.296;2022-12-07T09:13:25;94119.94;;;9.44;78.24
6024;BME280;3040;42.654;23.296;2022-12-07T09:15:52;94106.97;;;9.43;78.33
6024;BME280;3040;42.654;23.296;2022-12-07T09:18:19;94103.44;;;9.38;78.53
6024;BME280;3040;42.654;23.296;2022-12-07T09:20:46;94099.34;;;9.29;78.97
6024;BME280;3040;42.654;23.296;2022-12-07T09:23:13;94098.13;;;9.26;78.94
6024;BME280;3040;42.654;23.296;2022-12-07T09:25:41;94109.41;;;9.23;79.39
6024;BME280;3040;42.654;23.296;2022-12-07T09:28:08;94106.53;;;9.40;79.58
6024;BME280;3040;42.654;23.296;2022-12-07T09:30:35;94104.31;;;9.55;78.28
6024;BME280;3040;42.654;23.296;2022-12-07T09:33:02;94087.38;;;9.59;78.63
6024;BME280;3040;42.654;23.296;2022-12-07T09:35:30;94083.19;;;9.58;77.48
6024;BME280;3040;42.654;23.296;2022-12-07T09:37:57;94084.31;;;9.45;77.79
6024;BME280;3040;42.654;23.296;2022-12-07T09:40:25;94085.88;;;9.46;79.30
6024;BME280;3040;42.654;23.296;2022-12-07T09:42:54;94097.69;;;9.61;78.78
6024;BME280;3040;42.654;23.296;2022-12-07T09:45:23;94083.63;;;9.60;78.22
6024;BME280;3040;42.654;23.296;2022-12-07T09:47:51;94075.34;;;9.62;78.14
6024;BME280;3040;42.654;23.296;2022-12-07T09:50:21;94069.78;;;9.67;78.03
6024;BME280;3040;42.654;23.296;2022-12-07T09:52:50;94079.63;;;9.66;77.73
6024;BME280;3040;42.654;23.296;2022-12-07T09:55:22;94075.94;;;9.83;76.78
6024;BME280;3040;42.654;23.296;2022-12-07T09:57:53;94052.97;;;9.75;77.44
6024;BME280;3040;42.654;23.296;2022-12-07T10:00:22;94063.75;;;9.94;76.87
6024;BME280;3040;42.654;23.296;2022-12-07T10:02:55;94069.09;;;9.94;77.97
6024;BME280;3040;42.654;23.296;2022-12-07T10:05:26;94058.88;;;9.96;76.39
6024;BME280;3040;42.654;23.296;2022-12-07T10:07:54;94065.34;;;10.23;76.42
6024;BME280;3040;42.654;23.296;2022-12-07T10:10:25;94049.88;;;10.41;75.66
6024;BME280;3040;42.654;23.296;2022-12-07T10:12:56;94056.50;;;10.47;76.44
6024;BME280;3040;42.654;23.296;2022-12-07T10:15:24;94056.09;;;10.60;74.95
6024;BME280;3040;42.654;23.296;2022-12-07T10:18:17;94059.81;;;10.87;73.56
6024;BME280;3040;42.654;23.296;2022-12-07T10:20:45;94055.03;;;11.09;73.11
6024;BME280;3040;42.654;23.296;2022-12-07T10:23:15;94042.91;;;11.11;72.19
6024;BME280;3040;42.654;23.296;2022-12-07T10:25:43;94042.91;;;11.27;72.16
6024;BME280;3040;42.654;23.296;2022-12-07T10:28:14;94025.38;;;11.26;72.18
6024;BME280;3040;42.654;23.296;2022-12-07T10:30:54;94036.84;;;11.46;71.45
6024;BME280;3040;42.654;23.296;2022-12-07T10:33:38;94032.44;;;11.53;70.60
6024;BME280;3040;42.654;23.296;2022-12-07T10:36:21;94019.25;;;11.41;70.59
6024;BME280;3040;42.654;23.296;2022-12-07T10:38:51;94009.31;;;11.38;71.13
6024;BME280;3040;42.654;23.296;2022-12-07T10:41:18;93944.72;;;10.90;69.72
6024;BME280;3040;42.654;23.296;2022-12-07T10:43:50;94015.03;;;11.40;70.05
6024;BME280;3040;42.654;23.296;2022-12-07T10:49:46;94006.91;;;11.68;71.65
6024;BME280;3040;42.654;23.296;2022-12-07T10:52:28;94010.31;;;12.03;69.88
6024;BME280;3040;42.654;23.296;2022-12-07T10:55:08;94007.50;;;13.03;68.38
6024;BME280;3040;42.654;23.296;2022-12-07T10:57:47;94001.09;;;13.86;65.78
6024;BME280;3040;42.654;23.296;2022-12-07T11:00:21;93989.00;;;14.63;62.49
6024;BME280;3040;42.654;23.296;2022-12-07T11:03:30;93986.22;;;14.96;60.01
6024;BME280;3040;42.654;23.296;2022-12-07T11:06:10;93986.00;;;14.72;58.94
6024;BME280;3040;42.654;23.296;2022-12-07T11:08:57;93986.91;;;14.86;59.88
6024;BME280;3040;42.654;23.296;2022-12-07T11:11:33;93975.75;;;15.32;56.95
6024;BME280;3040;42.654;23.296;2022-12-07T11:14:07;93983.41;;;15.84;55.75
6024;BME280;3040;42.654;23.296;2022-12-07T11:16:52;93972.84;;;16.34;53.42
6024;BME280;3040;42.654;23.296;2022-12-07T11:19:34;93970.91;;;16.24;52.63
6024;BME280;3040;42.654;23.296;2022-12-07T11:22:13;93972.28;;;15.82;54.22
6024;BME280;3040;42.654;23.296;2022-12-07T11:24:49;93972.28;;;15.86;56.05
6024;BME280;3040;42.654;23.296;2022-12-07T11:27:26;93954.56;;;15.64;54.68
6024;BME280;3040;42.654;23.296;2022-12-07T11:30:08;93960.91;;;16.17;54.55
6024;BME280;3040;42.654;23.296;2022-12-07T11:32:51;93950.31;;;17.13;51.82
6024;BME280;3040;42.654;23.296;2022-12-07T11:35:26;93945.69;;;17.53;49.42
6024;BME280;3040;42.654;23.296;2022-12-07T11:38:00;93943.75;;;17.49;48.83
6024;BME280;3040;42.654;23.296;2022-12-07T11:40:31;93915.63;;;17.86;48.07
6024;BME280;3040;42.654;23.296;2022-12-07T11:43:05;93921.69;;;18.04;46.48
6024;BME280;3040;42.654;23.296;2022-12-07T11:45:34;93938.22;;;18.76;46.10
6024;BME280;3040;42.654;23.296;2022-12-07T11:48:08;93948.00;;;19.10;44.58
6024;BME280;3040;42.654;23.296;2022-12-07T11:50:39;93921.53;;;18.98;44.29
6024;BME280;3040;42.654;23.296;2022-12-07T11:53:14;93936.03;;;19.56;42.97
6024;BME280;3040;42.654;23.296;2022-12-07T11:55:50;93934.22;;;20.14;41.92
6024;BME280;3040;42.654;23.296;2022-12-07T11:58:29;93923.16;;;20.05;42.34
6024;BME280;3040;42.654;23.296;2022-12-07T12:01:11;93923.91;;;20.39;40.62
6024;BME280;3040;42.654;23.296;2022-12-07T12:03:44;93932.34;;;20.71;39.50
6024;BME280;3040;42.654;23.296;2022-12-07T12:06:12;93923.41;;;20.75;39.17
6024;BME280;3040;42.654;23.296;2022-12-07T12:08:43;93912.31;;;21.19;38.63
6024;BME280;3040;42.654;23.296;2022-12-07T12:11:19;93920.28;;;21.49;37.69
6024;BME280;3040;42.654;23.296;2022-12-07T12:14:13;93865.19;;;21.17;37.17
6024;BME280;3040;42.654;23.296;2022-12-07T12:17:05;93904.69;;;21.10;38.10
6024;BME280;3040;42.654;23.296;2022-12-07T12:19:42;93904.72;;;20.30;39.70
6024;BME280;3040;42.654;23.296;2022-12-07T12:22:15;93879.56;;;19.76;40.78
6024;BME280;3040;42.654;23.296;2022-12-07T12:24:45;93907.81;;;19.23;42.52
6024;BME280;3040;42.654;23.296;2022-12-07T12:27:21;93895.97;;;18.65;43.84
6024;BME280;3040;42.654;23.296;2022-12-07T12:29:53;93879.19;;;18.44;44.52
6024;BME280;3040;42.654;23.296;2022-12-07T12:32:21;93884.63;;;18.37;44.32
6024;BME280;3040;42.654;23.296;2022-12-07T12:37:45;93881.84;;;17.74;46.19
6024;BME280;3040;42.654;23.296;2022-12-07T12:40:37;93867.34;;;17.36;47.14
6024;BME280;3040;42.654;23.296;2022-12-07T12:46:48;93875.13;;;16.60;49.66
6024;BME280;3040;42.654;23.296;2022-12-07T12:49:34;93876.97;;;16.17;50.13
6024;BME280;3040;42.654;23.296;2022-12-07T12:55:15;93856.53;;;15.73;50.62
6024;BME280;3040;42.654;23.296;2022-12-07T12:57:45;93873.03;;;15.75;51.93
6024;BME280;3040;42.654;23.296;2022-12-07T13:00:17;93870.31;;;15.65;52.18
6024;BME280;3040;42.654;23.296;2022-12-07T13:02:48;93876.28;;;15.37;53.14
6024;BME280;3040;42.654;23.296;2022-12-07T13:05:19;93882.75;;;15.29;52.86
6024;BME280;3040;42.654;23.296;2022-12-07T13:08:05;93882.19;;;14.98;54.42
6024;BME280;3040;42.654;23.296;2022-12-07T13:10:43;93875.59;;;14.85;54.87
6024;BME280;3040;42.654;23.296;2022-12-07T13:13:33;93865.19;;;14.73;55.19
6024;BME280;3040;42.654;23.296;2022-12-07T13:16:38;93873.63;;;14.79;55.65
6024;BME280;3040;42.654;23.296;2022-12-07T13:25:48;93873.53;;;14.64;56.63
6024;BME280;3040;42.654;23.296;2022-12-07T13:28:17;93857.91;;;14.30;57.17
6024;BME280;3040;42.654;23.296;2022-12-07T13:30:51;93874.84;;;14.37;56.93
6024;BME280;3040;42.654;23.296;2022-12-07T13:33:24;93876.97;;;14.24;57.98
6024;BME280;3040;42.654;23.296;2022-12-07T13:35:54;93880.78;;;14.23;57.19
6024;BME280;3040;42.654;23.296;2022-12-07T13:38:25;93874.91;;;14.07;58.11
6024;BME280;3040;42.654;23.296;2022-12-07T13:41:03;93872.91;;;13.97;58.39
6024;BME280;3040;42.654;23.296;2022-12-07T13:43:31;93866.03;;;13.96;58.56
6024;BME280;3040;42.654;23.296;2022-12-07T13:45:58;93851.38;;;13.83;58.47
6024;BME280;3040;42.654;23.296;2022-12-07T13:48:30;93850.56;;;13.79;58.68
6024;BME280;3040;42.654;23.296;2022-12-07T13:51:00;93858.16;;;13.73;59.47
6024;BME280;3040;42.654;23.296;2022-12-07T13:53:28;93861.88;;;13.65;59.17
6024;BME280;3040;42.654;23.296;2022-12-07T13:55:56;93841.06;;;13.48;58.86
6024;BME280;3040;42.654;23.296;2022-12-07T13:58:25;93848.06;;;13.60;59.57